Time;durP1;ratioP1;P1;durP2;ratioP2;P2;SDS_P1;SDS_P2;PMS_P1;PMS_P2;Temp;Humidity;BMP_temperature;BMP_pressure;BME280_temperature;BME280_humidity;BME280_pressure;Samples;Min_cycle;Max_cycle;Signal;HPM_P1;HPM_P2
2023/12/21 00:00:38;;;;;;;1999.90;999.90;;;6.30;99.90;;;;;;5077034;28;20044;-76
2023/12/21 00:03:04;;;;;;;1999.90;999.90;;;6.30;99.90;;;;;;5071444;28;20048;-76
2023/12/21 00:05:30;;;;;;;1999.90;999.90;;;6.20;99.90;;;;;;5065103;28;20041;-76
2023/12/21 00:07:55;;;;;;;1999.90;999.90;;;6.10;99.90;;;;;;5063000;28;20545;-76
2023/12/21 00:10:21;;;;;;;1999.90;999.90;;;6.00;99.90;;;;;;5059178;28;20060;-76
2023/12/21 00:12:46;;;;;;;1999.90;999.90;;;6.00;99.90;;;;;;5056370;28;20100;-76
2023/12/21 00:15:13;;;;;;;1999.90;999.90;;;6.00;99.90;;;;;;5055617;28;20053;-76
2023/12/21 00:17:38;;;;;;;1999.90;999.90;;;5.90;99.90;;;;;;5055211;28;20033;-77
2023/12/21 00:20:05;;;;;;;1999.90;999.90;;;5.80;99.90;;;;;;5056830;28;20087;-77
2023/12/21 00:22:30;;;;;;;1999.90;999.90;;;5.70;99.90;;;;;;5055433;28;20049;-78
2023/12/21 00:24:56;;;;;;;1999.90;999.90;;;5.60;99.90;;;;;;5056685;28;20491;-78
2023/12/21 00:27:21;;;;;;;1999.90;999.90;;;5.50;99.90;;;;;;5056352;28;20113;-78
2023/12/21 00:29:47;;;;;;;1999.90;999.90;;;5.40;99.90;;;;;;5054907;28;20461;-77
2023/12/21 00:32:13;;;;;;;1999.90;999.90;;;5.40;99.90;;;;;;5055781;28;20044;-78
2023/12/21 00:34:38;;;;;;;1999.90;999.90;;;5.30;99.90;;;;;;5056479;28;20111;-78
2023/12/21 00:37:04;;;;;;;1999.90;999.90;;;5.30;99.90;;;;;;5069202;28;20090;-77
2023/12/21 00:39:30;;;;;;;1999.90;999.90;;;5.20;99.90;;;;;;5073922;28;20095;-79
2023/12/21 00:41:56;;;;;;;1999.90;999.90;;;5.20;99.90;;;;;;5076258;28;20044;-78
2023/12/21 00:44:21;;;;;;;1999.90;999.90;;;5.20;99.90;;;;;;5076520;28;20074;-78
2023/12/21 00:46:47;;;;;;;1999.90;999.90;;;5.30;99.90;;;;;;5076462;28;20534;-78
2023/12/21 00:49:12;;;;;;;1999.90;999.90;;;5.30;99.90;;;;;;5079653;28;20029;-78
2023/12/21 00:51:38;;;;;;;1999.90;999.90;;;5.20;99.90;;;;;;5079559;28;20402;-78
2023/12/21 00:54:03;;;;;;;1999.90;999.90;;;5.30;99.90;;;;;;5078125;28;20059;-78
2023/12/21 00:56:30;;;;;;;1999.90;999.90;;;5.40;99.90;;;;;;5079440;28;20036;-78
2023/12/21 00:58:59;;;;;;;1999.90;999.90;;;5.30;99.90;;;;;;5079276;28;20029;-78
2023/12/21 01:01:27;;;;;;;1999.90;999.90;;;5.30;99.90;;;;;;5078381;28;20029;-78
2023/12/21 01:03:53;;;;;;;1999.90;999.90;;;5.30;99.90;;;;;;5077668;28;20080;-77
2023/12/21 01:06:18;;;;;;;1999.90;999.90;;;5.40;99.90;;;;;;5081117;28;20457;-78
2023/12/21 01:08:44;;;;;;;1999.90;999.90;;;5.40;99.90;;;;;;5082767;28;20059;-78
2023/12/21 01:11:10;;;;;;;1999.90;999.90;;;5.40;99.90;;;;;;5078334;28;20112;-78
2023/12/21 01:13:36;;;;;;;1999.90;999.90;;;5.40;99.90;;;;;;5082452;28;20045;-78
2023/12/21 01:16:02;;;;;;;1999.90;999.90;;;5.40;99.90;;;;;;5078945;28;20033;-78
2023/12/21 01:18:28;;;;;;;1999.90;999.90;;;5.50;99.90;;;;;;5079214;28;20029;-77
2023/12/21 01:20:53;;;;;;;1999.90;999.90;;;5.50;99.90;;;;;;5078664;28;20036;-78
2023/12/21 01:23:19;;;;;;;1999.90;999.90;;;5.60;99.90;;;;;;5075840;28;20056;-78
2023/12/21 01:25:44;;;;;;;1999.90;999.90;;;5.60;99.90;;;;;;5078027;28;20509;-77
2023/12/21 01:28:10;;;;;;;1999.90;999.90;;;5.60;99.90;;;;;;5078611;28;20741;-78
2023/12/21 01:30:35;;;;;;;1999.90;999.90;;;5.70;99.90;;;;;;5076374;28;20359;-78
2023/12/21 01:33:01;;;;;;;1999.90;999.90;;;5.70;99.90;;;;;;5078119;28;20043;-78
2023/12/21 01:35:27;;;;;;;1999.90;999.90;;;5.70;99.90;;;;;;5079105;28;20029;-78
2023/12/21 01:37:52;;;;;;;1999.90;999.90;;;5.80;99.90;;;;;;5078693;28;20037;-78
2023/12/21 01:40:18;;;;;;;1999.90;999.90;;;5.90;99.90;;;;;;5077848;28;20075;-78
2023/12/21 01:42:43;;;;;;;1999.90;999.90;;;5.90;99.90;;;;;;5077699;28;20044;-78
2023/12/21 01:45:09;;;;;;;1999.90;999.90;;;6.00;99.90;;;;;;5076979;28;20047;-78
2023/12/21 01:47:35;;;;;;;1999.90;999.90;;;6.00;99.90;;;;;;5078510;28;20055;-79
2023/12/21 01:50:01;;;;;;;1999.90;999.90;;;6.00;99.90;;;;;;5075661;28;20408;-77
2023/12/21 01:52:28;;;;;;;1999.90;999.90;;;6.10;99.90;;;;;;5075301;28;20037;-77
2023/12/21 01:54:54;;;;;;;1999.90;999.90;;;6.10;99.90;;;;;;5077514;28;20024;-78
2023/12/21 01:57:20;;;;;;;1999.90;999.90;;;6.10;99.90;;;;;;5076561;28;20037;-77
2023/12/21 01:59:46;;;;;;;1999.90;999.90;;;6.30;99.90;;;;;;5076580;28;20525;-78
2023/12/21 02:02:12;;;;;;;1999.90;999.90;;;6.30;99.90;;;;;;5076429;28;20120;-79
2023/12/21 02:04:37;;;;;;;1999.90;999.90;;;6.20;99.90;;;;;;5077610;28;20044;-78
2023/12/21 02:07:03;;;;;;;1999.90;999.90;;;6.30;99.90;;;;;;5077863;28;20029;-78
2023/12/21 02:09:29;;;;;;;1999.90;999.90;;;6.30;99.90;;;;;;5078185;28;20036;-78
2023/12/21 02:11:54;;;;;;;1999.90;999.90;;;6.30;99.90;;;;;;5076189;28;20064;-77
2023/12/21 02:14:20;;;;;;;1999.90;999.90;;;6.30;99.90;;;;;;5078846;28;20057;-78
2023/12/21 02:17:02;;;;;;;1999.90;999.90;;;6.40;99.90;;;;;;5076159;28;20120;-77
2023/12/21 02:19:28;;;;;;;1999.90;999.90;;;6.40;99.90;;;;;;5079342;28;20041;-78
2023/12/21 02:21:57;;;;;;;1999.90;999.90;;;6.50;99.90;;;;;;5079954;28;21897;-77
2023/12/21 02:24:22;;;;;;;1999.90;999.90;;;6.40;99.90;;;;;;5084840;28;20083;-78
2023/12/21 02:26:48;;;;;;;1999.90;999.90;;;6.50;99.90;;;;;;5078763;28;20037;-78
2023/12/21 02:29:14;;;;;;;1999.90;999.90;;;6.50;99.90;;;;;;5077734;28;20087;-78
2023/12/21 02:31:39;;;;;;;1999.90;999.90;;;6.50;99.90;;;;;;5076265;28;20041;-78
2023/12/21 02:34:09;;;;;;;1999.90;999.90;;;6.60;99.90;;;;;;5075984;28;20082;-78
2023/12/21 02:36:34;;;;;;;1999.90;999.90;;;6.70;99.90;;;;;;5073943;28;20391;-77
2023/12/21 02:39:00;;;;;;;1999.90;999.90;;;6.70;99.90;;;;;;5073353;28;20033;-78
2023/12/21 02:41:26;;;;;;;1999.90;999.90;;;6.90;99.90;;;;;;5073373;28;20664;-77
2023/12/21 02:43:51;;;;;;;1999.90;999.90;;;6.90;99.90;;;;;;5072546;28;20037;-78
2023/12/21 02:46:18;;;;;;;1999.90;999.90;;;6.90;99.90;;;;;;5072537;28;20041;-78
2023/12/21 02:48:44;;;;;;;1999.90;999.90;;;7.00;99.90;;;;;;5076160;28;20112;-78
2023/12/21 02:51:10;;;;;;;1999.90;999.90;;;7.00;99.90;;;;;;5075490;28;20239;-77
2023/12/21 02:53:36;;;;;;;1999.90;999.90;;;7.00;99.90;;;;;;5076943;28;20179;-76
2023/12/21 02:56:02;;;;;;;1999.90;999.90;;;7.10;99.90;;;;;;5075525;28;20039;-77
2023/12/21 02:58:28;;;;;;;1999.90;999.90;;;7.10;99.90;;;;;;5075219;28;20033;-77
2023/12/21 03:00:53;;;;;;;1999.90;999.90;;;7.10;99.90;;;;;;5075577;28;20033;-77
2023/12/21 03:03:19;;;;;;;1999.90;999.90;;;7.00;99.90;;;;;;5074866;28;20045;-79
2023/12/21 03:05:46;;;;;;;1999.90;999.90;;;7.00;99.90;;;;;;5073868;28;20035;-76
2023/12/21 03:08:11;;;;;;;1999.90;999.90;;;7.00;99.90;;;;;;5075700;28;20086;-78
2023/12/21 03:10:37;;;;;;;1999.90;999.90;;;6.90;99.90;;;;;;5073734;28;20086;-76
2023/12/21 03:13:03;;;;;;;1999.90;999.90;;;6.90;99.90;;;;;;5074865;28;20041;-77
2023/12/21 03:15:29;;;;;;;1999.90;999.90;;;6.90;99.90;;;;;;5073480;28;20029;-77
2023/12/21 03:17:54;;;;;;;1999.90;999.90;;;6.90;99.90;;;;;;5072606;28;20039;-76
2023/12/21 03:20:20;;;;;;;1999.90;999.90;;;6.90;99.90;;;;;;5073865;28;20025;-76
2023/12/21 03:22:45;;;;;;;1999.90;999.90;;;6.90;99.90;;;;;;5075114;28;20052;-76
2023/12/21 03:25:11;;;;;;;1999.90;999.90;;;6.90;99.90;;;;;;5075948;28;20029;-77
2023/12/21 03:27:37;;;;;;;1999.90;999.90;;;6.80;99.90;;;;;;5075417;28;20059;-76
2023/12/21 03:30:02;;;;;;;1999.90;999.90;;;6.80;99.90;;;;;;5076377;28;20028;-76
2023/12/21 03:32:28;;;;;;;1999.90;999.90;;;6.80;99.90;;;;;;5076802;28;20037;-76
2023/12/21 03:34:54;;;;;;;1999.90;999.90;;;6.80;99.90;;;;;;5075021;28;20033;-77
2023/12/21 03:37:20;;;;;;;1999.90;999.90;;;6.80;99.90;;;;;;5074762;28;20037;-77
2023/12/21 03:39:46;;;;;;;1999.90;999.90;;;6.80;99.90;;;;;;5076428;28;20060;-78
2023/12/21 03:42:12;;;;;;;1999.90;999.90;;;6.80;99.90;;;;;;5074304;28;20120;-77
2023/12/21 03:44:37;;;;;;;1999.90;999.90;;;6.80;99.90;;;;;;5078636;28;20029;-76
2023/12/21 03:47:03;;;;;;;1999.90;999.90;;;6.80;99.90;;;;;;5079092;28;20086;-76
2023/12/21 03:49:29;;;;;;;1999.90;999.90;;;6.80;99.90;;;;;;5079609;28;20033;-77
2023/12/21 03:51:58;;;;;;;1999.90;999.90;;;6.90;99.90;;;;;;5079895;28;20035;-78
2023/12/21 03:54:23;;;;;;;1999.90;999.90;;;6.80;99.90;;;;;;5078144;28;20037;-77
2023/12/21 03:56:49;;;;;;;1999.90;999.90;;;6.70;99.90;;;;;;5078462;28;20035;-78
2023/12/21 03:59:14;;;;;;;1999.90;999.90;;;6.70;99.90;;;;;;5078565;28;20030;-76
2023/12/21 04:01:40;;;;;;;1999.90;999.90;;;6.70;99.90;;;;;;5077405;28;20079;-77
2023/12/21 04:04:05;;;;;;;1999.90;999.90;;;6.60;99.90;;;;;;5078676;28;20084;-78
2023/12/21 04:06:32;;;;;;;1999.90;999.90;;;6.60;99.90;;;;;;5076402;28;20056;-76
2023/12/21 04:08:58;;;;;;;1999.90;999.90;;;6.60;99.90;;;;;;5078155;28;20044;-78
2023/12/21 04:11:23;;;;;;;1999.90;999.90;;;6.60;99.90;;;;;;5077842;28;20032;-77
2023/12/21 04:13:49;;;;;;;1999.90;999.90;;;6.60;99.90;;;;;;5077118;28;20033;-77
2023/12/21 04:16:15;;;;;;;1999.90;999.90;;;6.60;99.90;;;;;;5075264;28;20029;-76
2023/12/21 04:18:41;;;;;;;1999.90;999.90;;;6.60;99.90;;;;;;5076852;28;20041;-77
2023/12/21 04:21:07;;;;;;;1999.90;999.90;;;6.50;99.90;;;;;;5078378;28;20036;-76
2023/12/21 04:23:33;;;;;;;1999.90;999.90;;;6.60;99.90;;;;;;5077576;28;20479;-77
2023/12/21 04:25:59;;;;;;;1999.90;999.90;;;6.50;99.90;;;;;;5076929;28;20837;-76
2023/12/21 04:28:24;;;;;;;1999.90;999.90;;;6.50;99.90;;;;;;5078181;28;20044;-76
2023/12/21 04:30:50;;;;;;;1999.90;999.90;;;6.50;99.90;;;;;;5077975;28;20084;-77
2023/12/21 04:33:16;;;;;;;1999.90;999.90;;;6.50;99.90;;;;;;5075962;28;20039;-78
2023/12/21 04:35:46;;;;;;;1999.90;999.90;;;6.50;99.90;;;;;;5077147;28;20037;-77
2023/12/21 04:38:12;;;;;;;1999.90;999.90;;;6.50;99.90;;;;;;5075898;28;20107;-76
2023/12/21 04:40:38;;;;;;;1999.90;999.90;;;6.50;99.90;;;;;;5075536;28;20033;-76
2023/12/21 04:43:04;;;;;;;1999.90;999.90;;;6.50;99.90;;;;;;5076731;28;20494;-76
2023/12/21 04:45:29;;;;;;;1999.90;999.90;;;6.50;99.90;;;;;;5077574;28;20025;-77
2023/12/21 04:47:55;;;;;;;1999.90;999.90;;;6.50;99.90;;;;;;5076905;28;20033;-77
2023/12/21 04:50:20;;;;;;;1999.90;999.90;;;6.50;99.90;;;;;;5078430;28;20025;-78
2023/12/21 04:52:51;;;;;;;1999.90;999.90;;;6.40;99.90;;;;;;5079453;28;20033;-77
2023/12/21 04:55:17;;;;;;;1999.90;999.90;;;6.40;99.90;;;;;;5077941;28;20029;-77
2023/12/21 04:57:42;;;;;;;1999.90;999.90;;;6.40;99.90;;;;;;5078484;28;20063;-77
2023/12/21 05:00:09;;;;;;;1999.90;999.90;;;6.30;99.90;;;;;;5078884;28;20471;-77
2023/12/21 05:02:34;;;;;;;1999.90;999.90;;;6.30;99.90;;;;;;5078222;28;20790;-77
2023/12/21 05:05:00;;;;;;;1999.90;999.90;;;6.30;99.90;;;;;;5077618;28;20036;-77
2023/12/21 05:07:26;;;;;;;1999.90;999.90;;;6.20;99.90;;;;;;5074380;28;20120;-78
2023/12/21 05:09:53;;;;;;;1999.90;999.90;;;6.20;99.90;;;;;;5076189;28;20033;-78
2023/12/21 05:12:18;;;;;;;1999.90;999.90;;;6.30;99.90;;;;;;5075796;28;20112;-78
2023/12/21 05:14:44;;;;;;;1999.90;999.90;;;6.20;99.90;;;;;;5076130;28;20028;-78
2023/12/21 05:17:10;;;;;;;1999.90;999.90;;;6.20;99.90;;;;;;5075117;28;20120;-78
2023/12/21 05:19:35;;;;;;;1999.90;999.90;;;6.20;99.90;;;;;;5074482;28;20064;-78
2023/12/21 05:22:01;;;;;;;1999.90;999.90;;;6.20;99.90;;;;;;5075624;28;20052;-78
2023/12/21 05:24:26;;;;;;;1999.90;999.90;;;6.20;99.90;;;;;;5075835;28;20567;-77
2023/12/21 05:26:52;;;;;;;1999.90;999.90;;;6.20;99.90;;;;;;5073679;28;20037;-78
2023/12/21 05:29:17;;;;;;;1999.90;999.90;;;6.20;99.90;;;;;;5075515;28;20071;-78
2023/12/21 05:31:43;;;;;;;1999.90;999.90;;;6.20;99.90;;;;;;5075494;28;20083;-78
2023/12/21 05:34:09;;;;;;;1999.90;999.90;;;6.30;99.90;;;;;;5075475;28;20036;-78
2023/12/21 05:36:34;;;;;;;1999.90;999.90;;;6.30;99.90;;;;;;5074741;28;20399;-78
2023/12/21 05:39:00;;;;;;;1999.90;999.90;;;6.30;99.90;;;;;;5075767;28;20087;-78
2023/12/21 05:41:26;;;;;;;1999.90;999.90;;;6.30;99.90;;;;;;5079522;28;20052;-78
2023/12/21 05:43:52;;;;;;;1999.90;999.90;;;6.40;99.90;;;;;;5074713;28;20502;-78
2023/12/21 05:46:17;;;;;;;1999.90;999.90;;;6.40;99.90;;;;;;5075157;28;20040;-78
2023/12/21 05:48:43;;;;;;;1999.90;999.90;;;6.40;99.90;;;;;;5066974;28;20061;-78
2023/12/21 05:51:08;;;;;;;1999.90;999.90;;;6.50;99.90;;;;;;5055454;28;20036;-77
2023/12/21 05:53:34;;;;;;;1999.90;999.90;;;6.70;99.90;;;;;;5054590;28;20033;-77
2023/12/21 05:56:00;;;;;;;1999.90;999.90;;;6.70;99.90;;;;;;5054669;28;20092;-76
2023/12/21 05:58:25;;;;;;;1999.90;999.90;;;6.70;99.90;;;;;;5055114;28;20084;-76
2023/12/21 06:00:51;;;;;;;1999.90;999.90;;;6.70;99.90;;;;;;5055339;28;20029;-77
2023/12/21 06:03:17;;;;;;;1999.90;999.90;;;6.80;99.90;;;;;;5055285;28;20050;-76
2023/12/21 06:05:42;;;;;;;1999.90;999.90;;;6.90;99.90;;;;;;5054580;28;20068;-76
2023/12/21 06:08:08;;;;;;;1999.90;999.90;;;6.80;99.90;;;;;;5054121;28;20116;-76
2023/12/21 06:10:33;;;;;;;1999.90;999.90;;;6.80;99.90;;;;;;5055363;28;20026;-76
2023/12/21 06:12:59;;;;;;;1999.90;999.90;;;6.80;99.90;;;;;;5054467;28;20170;-76
2023/12/21 06:15:25;;;;;;;1999.90;999.90;;;6.90;99.90;;;;;;5053406;28;20064;-76
2023/12/21 06:17:51;;;;;;;1999.90;999.90;;;6.90;99.90;;;;;;5052823;28;20087;-76
2023/12/21 06:20:16;;;;;;;1999.90;999.90;;;7.00;99.90;;;;;;5053437;28;20107;-76
2023/12/21 06:22:42;;;;;;;1999.90;999.90;;;7.10;99.90;;;;;;5054526;28;20072;-76
2023/12/21 06:25:08;;;;;;;1999.90;999.90;;;7.00;99.90;;;;;;5054921;28;20487;-76
2023/12/21 06:27:33;;;;;;;1999.90;999.90;;;7.00;99.90;;;;;;5084014;22;20056;-76
2023/12/21 06:29:59;;;;;;;1999.90;999.90;;;7.00;99.90;;;;;;5073560;28;20112;-77
2023/12/21 06:32:25;;;;;;;1999.90;999.90;;;7.10;99.90;;;;;;5073954;28;20036;-77
2023/12/21 06:34:51;;;;;;;1999.90;999.90;;;7.10;99.90;;;;;;5075518;28;20037;-77
2023/12/21 06:37:17;;;;;;;1999.90;999.90;;;7.10;99.90;;;;;;5073954;28;20025;-76
2023/12/21 06:39:42;;;;;;;1999.90;999.90;;;7.10;99.90;;;;;;5074778;28;20033;-78
2023/12/21 06:42:08;;;;;;;1999.90;999.90;;;7.20;99.90;;;;;;5074256;28;20263;-78
2023/12/21 06:44:33;;;;;;;1999.90;999.90;;;7.40;99.90;;;;;;5074624;28;20474;-78
2023/12/21 06:46:59;;;;;;;1999.90;999.90;;;7.40;99.90;;;;;;5073818;28;20032;-78
2023/12/21 06:49:25;;;;;;;1999.90;999.90;;;7.60;99.90;;;;;;5073698;28;20033;-78
2023/12/21 06:51:50;;;;;;;1999.90;999.90;;;7.70;99.90;;;;;;5073153;28;20044;-78
2023/12/21 06:54:16;;;;;;;1999.90;999.90;;;8.00;99.90;;;;;;5074462;28;20037;-79
2023/12/21 06:56:42;;;;;;;1999.90;999.90;;;7.80;99.90;;;;;;5073620;28;20474;-77
2023/12/21 06:59:07;;;;;;;1999.90;999.90;;;7.90;99.90;;;;;;5074213;28;20434;-78
2023/12/21 07:01:33;;;;;;;1999.90;999.90;;;7.90;99.90;;;;;;5072232;28;20060;-81
2023/12/21 07:03:59;;;;;;;1999.90;999.90;;;8.00;99.90;;;;;;5077257;28;20063;-78
2023/12/21 07:06:27;;;;;;;1999.90;999.90;;;8.00;99.90;;;;;;5075498;28;20044;-77
2023/12/21 07:08:54;;;;;;;1999.90;999.90;;;8.10;99.90;;;;;;5077764;28;20052;-78
2023/12/21 07:11:20;;;;;;;1999.90;999.90;;;8.00;99.90;;;;;;5064966;28;20039;-78
2023/12/21 07:13:46;;;;;;;1999.90;999.90;;;8.00;99.90;;;;;;5076803;28;20110;-78
2023/12/21 07:16:12;;;;;;;1999.90;999.90;;;8.00;99.90;;;;;;5076011;28;20025;-81
2023/12/21 07:18:38;;;;;;;1999.90;999.90;;;8.10;99.90;;;;;;5077610;28;20082;-78
2023/12/21 07:21:04;;;;;;;1999.90;999.90;;;8.10;99.90;;;;;;5071803;28;20086;-76
2023/12/21 07:23:30;;;;;;;1999.90;999.90;;;8.10;99.90;;;;;;5078134;28;20088;-77
2023/12/21 07:25:56;;;;;;;1999.90;999.90;;;8.10;99.90;;;;;;5078662;28;20489;-77
2023/12/21 07:28:22;;;;;;;1999.90;999.90;;;8.10;99.90;;;;;;5079569;28;20076;-82
2023/12/21 07:30:48;;;;;;;1999.90;999.90;;;8.10;99.90;;;;;;5075287;28;20040;-78
2023/12/21 07:33:13;;;;;;;1999.90;999.90;;;8.10;99.90;;;;;;5078104;28;20112;-80
2023/12/21 07:35:39;;;;;;;1999.90;999.90;;;8.20;99.90;;;;;;5077672;28;20087;-76
2023/12/21 07:38:06;;;;;;;1999.90;999.90;;;8.10;99.90;;;;;;5077358;28;20044;-76
2023/12/21 07:40:31;;;;;;;1999.90;999.90;;;8.10;99.90;;;;;;5077655;28;20033;-77
2023/12/21 07:42:57;;;;;;;1999.90;999.90;;;8.10;99.90;;;;;;5069826;28;20042;-77
2023/12/21 07:45:22;;;;;;;1999.90;999.90;;;8.10;99.90;;;;;;5071120;28;20037;-76
2023/12/21 07:47:48;;;;;;;1999.90;999.90;;;8.10;99.90;;;;;;5076203;28;20048;-76
2023/12/21 07:50:14;;;;;;;1999.90;999.90;;;8.20;99.90;;;;;;5076049;28;20035;-76
2023/12/21 07:52:40;;;;;;;1999.90;999.90;;;8.20;99.90;;;;;;5076705;28;20479;-77
2023/12/21 07:55:06;;;;;;;1999.90;999.90;;;8.20;99.90;;;;;;5075586;28;20063;-77
2023/12/21 07:57:32;;;;;;;1999.90;999.90;;;8.20;99.90;;;;;;5074062;28;20033;-76
2023/12/21 07:59:58;;;;;;;1999.90;999.90;;;8.20;99.90;;;;;;5076019;28;20072;-77
2023/12/21 08:02:23;;;;;;;1999.90;999.90;;;8.20;99.90;;;;;;5076987;28;20056;-76
2023/12/21 08:04:50;;;;;;;1999.90;999.90;;;8.20;99.90;;;;;;5077083;28;20033;-77
2023/12/21 08:07:15;;;;;;;1999.90;999.90;;;8.30;99.90;;;;;;5076056;28;20825;-76
2023/12/21 08:09:41;;;;;;;1999.90;999.90;;;8.20;99.90;;;;;;5076842;28;20163;-76
2023/12/21 08:12:08;;;;;;;1999.90;999.90;;;8.30;99.90;;;;;;5075036;28;20124;-76
2023/12/21 08:14:37;;;;;;;1999.90;999.90;;;8.30;99.90;;;;;;5076861;28;20036;-76
2023/12/21 08:17:07;;;;;;;1999.90;999.90;;;8.40;99.90;;;;;;5075802;28;20497;-76
2023/12/21 08:19:33;;;;;;;1999.90;999.90;;;8.40;99.90;;;;;;5076486;28;20029;-76
2023/12/21 08:21:58;;;;;;;1999.90;999.90;;;8.40;99.90;;;;;;5075802;28;20095;-77
2023/12/21 08:24:24;;;;;;;1999.90;999.90;;;8.40;99.90;;;;;;5075345;28;20621;-77
2023/12/21 08:26:49;;;;;;;1999.90;999.90;;;8.40;99.90;;;;;;5075398;28;20033;-77
2023/12/21 08:29:15;;;;;;;1999.90;999.90;;;8.40;99.90;;;;;;5074742;28;20111;-76
2023/12/21 08:31:40;;;;;;;1999.90;999.90;;;8.40;99.90;;;;;;5075235;28;20083;-77
2023/12/21 08:34:07;;;;;;;1999.90;999.90;;;8.40;99.90;;;;;;5075352;28;20822;-76
2023/12/21 08:36:33;;;;;;;1999.90;999.90;;;8.50;99.90;;;;;;5074263;28;20036;-76
2023/12/21 08:38:58;;;;;;;1999.90;999.90;;;8.40;99.90;;;;;;5095056;28;20043;-77
2023/12/21 08:41:25;;;;;;;1999.90;999.90;;;8.40;99.90;;;;;;5095466;28;20532;-77
2023/12/21 08:43:51;;;;;;;1999.90;999.90;;;8.50;99.90;;;;;;5095755;28;20418;-77
2023/12/21 08:46:17;;;;;;;1999.90;999.90;;;8.50;99.90;;;;;;5095925;28;20032;-76
2023/12/21 08:48:42;;;;;;;1999.90;999.90;;;8.60;99.90;;;;;;5096931;28;20319;-77
2023/12/21 08:51:08;;;;;;;1999.90;999.90;;;8.50;99.90;;;;;;5096322;28;20037;-77
2023/12/21 08:53:34;;;;;;;1999.90;999.90;;;8.60;99.90;;;;;;5095150;28;20032;-77
2023/12/21 08:55:59;;;;;;;1999.90;999.90;;;8.50;99.90;;;;;;5094923;28;20031;-77
2023/12/21 08:58:25;;;;;;;1999.90;999.90;;;8.60;99.90;;;;;;5098083;28;20108;-79
2023/12/21 09:00:51;;;;;;;1999.90;999.90;;;8.90;99.90;;;;;;5096359;28;20075;-76
2023/12/21 09:03:17;;;;;;;1999.90;999.90;;;8.60;99.90;;;;;;5095252;28;20119;-76
2023/12/21 09:05:42;;;;;;;1999.90;999.90;;;8.60;99.90;;;;;;5096873;28;20036;-78
2023/12/21 09:08:08;;;;;;;1999.90;999.90;;;8.50;99.90;;;;;;5097447;28;20094;-78
2023/12/21 09:10:33;;;;;;;1999.90;999.90;;;9.00;99.90;;;;;;5096668;28;20071;-76
2023/12/21 09:12:59;;;;;;;1999.90;999.90;;;8.70;99.90;;;;;;5094972;28;20032;-76
2023/12/21 09:15:26;;;;;;;1999.90;999.90;;;8.70;99.90;;;;;;5096191;28;20033;-77
2023/12/21 09:17:53;;;;;;;1999.90;999.90;;;8.70;99.90;;;;;;5095777;28;20060;-78
2023/12/21 09:20:18;;;;;;;1999.90;999.90;;;8.70;99.90;;;;;;5098417;28;20516;-78
2023/12/21 09:22:45;;;;;;;1999.90;999.90;;;8.80;99.90;;;;;;5098855;28;20093;-77
2023/12/21 09:25:11;;;;;;;1999.90;999.90;;;8.90;99.90;;;;;;5065773;28;20450;-77
2023/12/21 09:27:36;;;;;;;1999.90;999.90;;;8.90;99.90;;;;;;5053120;28;20041;-78
2023/12/21 09:30:05;;;;;;;1999.90;999.90;;;8.90;99.90;;;;;;5054260;28;20458;-77
2023/12/21 09:32:31;;;;;;;1999.90;999.90;;;9.00;99.90;;;;;;5053957;28;20037;-78
2023/12/21 09:34:56;;;;;;;1999.90;999.90;;;9.00;99.90;;;;;;5053268;28;20034;-77
2023/12/21 09:37:22;;;;;;;1999.90;999.90;;;9.10;99.90;;;;;;5054290;28;20055;-78
2023/12/21 09:39:49;;;;;;;1999.90;999.90;;;9.10;99.90;;;;;;5057676;28;20495;-76
2023/12/21 09:42:15;;;;;;;1999.90;999.90;;;9.10;99.90;;;;;;5052984;28;20041;-78
2023/12/21 09:44:46;;;;;;;1999.90;999.90;;;9.10;99.90;;;;;;5053771;28;20041;-78
2023/12/21 09:47:13;;;;;;;1999.90;999.90;;;9.10;99.90;;;;;;5057065;28;20033;-78
2023/12/21 09:49:40;;;;;;;1999.90;999.90;;;9.20;99.90;;;;;;5063011;28;20021;-80
2023/12/21 09:52:08;;;;;;;1999.90;999.90;;;9.20;99.90;;;;;;5065394;28;20037;-80
2023/12/21 09:54:36;;;;;;;1999.90;999.90;;;9.30;99.90;;;;;;5058237;28;20076;-79
2023/12/21 09:57:03;;;;;;;1999.90;999.90;;;9.30;99.90;;;;;;5073981;28;20664;-79
2023/12/21 09:59:31;;;;;;;1999.90;999.90;;;9.30;99.90;;;;;;5075595;28;20075;-79
2023/12/21 10:01:57;;;;;;;1999.90;999.90;;;9.40;99.90;;;;;;5077481;28;20490;-79
2023/12/21 10:04:23;;;;;;;1999.90;999.90;;;9.40;99.90;;;;;;5078298;28;20047;-78
2023/12/21 10:06:49;;;;;;;1999.90;999.90;;;9.50;99.90;;;;;;5077716;28;20711;-76
2023/12/21 10:09:15;;;;;;;1999.90;999.90;;;9.40;99.90;;;;;;5075054;28;20048;-76
2023/12/21 10:11:41;;;;;;;1999.90;999.90;;;9.40;99.90;;;;;;5075223;28;20028;-76
2023/12/21 10:14:17;;;;;;;1999.90;999.90;;;9.40;99.90;;;;;;5075193;28;20033;-75
2023/12/21 10:16:42;;;;;;;1999.90;999.90;;;9.50;99.90;;;;;;5072289;28;20028;-76
2023/12/21 10:19:16;;;;;;;1999.90;999.90;;;9.50;99.90;;;;;;5073866;28;20041;-75
2023/12/21 10:21:42;;;;;;;1999.90;999.90;;;9.50;99.90;;;;;;5072500;28;20021;-75
2023/12/21 10:24:08;;;;;;;1999.90;999.90;;;9.50;99.90;;;;;;5073214;28;20037;-75
2023/12/21 10:26:44;;;;;;;1999.90;999.90;;;9.50;99.90;;;;;;5072231;28;20033;-77
2023/12/21 10:29:12;;;;;;;1999.90;999.90;;;9.50;99.90;;;;;;5074166;28;20086;-76
2023/12/21 10:31:43;;;;;;;1999.90;999.90;;;9.50;99.90;;;;;;5073720;28;20063;-78
2023/12/21 10:34:09;;;;;;;1999.90;999.90;;;9.50;99.90;;;;;;5075512;28;20147;-77
2023/12/21 10:36:42;;;;;;;1999.90;999.90;;;9.60;99.90;;;;;;5074852;28;20074;-77
2023/12/21 10:39:09;;;;;;;1999.90;999.90;;;9.60;99.90;;;;;;5074043;28;20040;-79
2023/12/21 10:41:35;;;;;;;1999.90;999.90;;;9.60;99.90;;;;;;5073784;28;20056;-77
2023/12/21 10:44:01;;;;;;;1999.90;999.90;;;9.60;99.90;;;;;;5073447;28;20128;-79
2023/12/21 10:46:30;;;;;;;1999.90;999.90;;;9.60;99.90;;;;;;5073880;28;20036;-78
2023/12/21 10:49:01;;;;;;;1999.90;999.90;;;9.70;99.90;;;;;;5074004;28;20048;-79
2023/12/21 10:51:37;;;;;;;1999.90;999.90;;;9.70;99.90;;;;;;5074048;28;20032;-79
2023/12/21 10:54:09;;;;;;;1999.90;999.90;;;9.70;99.90;;;;;;5073933;28;20029;-78
2023/12/21 10:56:39;;;;;;;1999.90;999.90;;;9.70;99.90;;;;;;5075794;28;20029;-79
2023/12/21 10:59:06;;;;;;;1999.90;999.90;;;9.70;99.90;;;;;;5073104;28;20090;-78
2023/12/21 11:01:33;;;;;;;1999.90;999.90;;;9.70;99.90;;;;;;5075209;28;20521;-82
2023/12/21 11:04:03;;;;;;;1999.90;999.90;;;9.70;99.90;;;;;;5075874;28;20068;-80
2023/12/21 11:06:31;;;;;;;1999.90;999.90;;;9.80;99.90;;;;;;5073282;28;20083;-79
2023/12/21 11:08:57;;;;;;;1999.90;999.90;;;9.80;99.90;;;;;;5073125;28;20473;-79
2023/12/21 11:11:25;;;;;;;1999.90;999.90;;;9.80;99.90;;;;;;5073076;28;20509;-79
2023/12/21 11:13:55;;;;;;;1999.90;999.90;;;9.80;99.90;;;;;;5073599;28;20033;-78
2023/12/21 11:16:28;;;;;;;1999.90;999.90;;;9.80;99.90;;;;;;5073090;28;20029;-78
2023/12/21 11:18:57;;;;;;;1999.90;999.90;;;9.90;99.90;;;;;;5074562;28;20044;-77
2023/12/21 11:21:26;;;;;;;1999.90;999.90;;;9.90;99.90;;;;;;5072535;28;20033;-78
2023/12/21 11:23:52;;;;;;;1999.90;999.90;;;9.90;99.90;;;;;;5073659;28;20037;-78
2023/12/21 11:26:25;;;;;;;1999.90;999.90;;;10.00;99.90;;;;;;5072907;28;20033;-78
2023/12/21 11:28:50;;;;;;;1999.90;999.90;;;10.00;99.90;;;;;;5074484;28;20116;-77
2023/12/21 11:31:16;;;;;;;1999.90;999.90;;;10.00;99.90;;;;;;5076284;28;20116;-79
2023/12/21 11:33:45;;;;;;;1999.90;999.90;;;10.00;99.90;;;;;;5075935;28;20037;-79
2023/12/21 11:36:22;;;;;;;1999.90;999.90;;;9.90;99.90;;;;;;5075169;28;20056;-80
2023/12/21 11:38:51;;;;;;;1999.90;999.90;;;10.00;99.90;;;;;;5075085;28;20544;-77
2023/12/21 11:41:23;;;;;;;1999.90;999.90;;;9.80;99.90;;;;;;5075968;28;20056;-80
2023/12/21 11:43:59;;;;;;;1999.90;999.90;;;9.80;99.90;;;;;;5077650;28;20037;-81
2023/12/21 11:46:25;;;;;;;1999.90;999.90;;;9.60;99.90;;;;;;5074882;28;20091;-79
2023/12/21 11:48:51;;;;;;;1999.90;999.90;;;9.40;99.90;;;;;;5073163;28;20044;-77
2023/12/21 11:51:16;;;;;;;1999.90;999.90;;;9.10;99.90;;;;;;5072983;28;20446;-79
2023/12/21 11:53:43;;;;;;;1999.90;999.90;;;8.90;99.90;;;;;;5064774;28;20097;-77
2023/12/21 11:56:15;;;;;;;1999.90;999.90;;;8.80;99.90;;;;;;5051717;28;20036;-79
2023/12/21 11:58:41;;;;;;;1999.90;999.90;;;8.70;99.90;;;;;;5057377;28;20044;-80
2023/12/21 12:01:08;;;;;;;1999.90;999.90;;;8.60;99.90;;;;;;5063366;28;20533;-82
2023/12/21 12:03:33;;;;;;;1999.90;999.90;;;8.60;99.90;;;;;;5076399;28;20571;-82